Flight Track Log - Related Links

Times and Time Zones

All times are in EDT time to prevent confusion due to time zone crossing. See the MTN8305 flight status page for this flight to view local times or setup timezone preferences in your user account.


Time Position Orientation Groundspeed Altitude Reporting Facility
EDT Latitude Longitude Course Direction KTS MPH feet Rate Location/Type
Tue 04:10:36 AM 40.6500 -74.2000 237° Southwest 107 123 1,100  Level New York TRACON
Tue 04:11:36 AM 40.6333 -74.2333 237° Southwest 116 133 1,700 600 Climbing New York TRACON
Tue 04:12:36 AM 40.6167 -74.2833 246° West 122 140 2,300 571 Climbing New York TRACON
Tue 04:13:42 AM 40.6000 -74.3167 237° Southwest 123 142 2,900 500 Climbing New York TRACON
Tue 04:14:36 AM 40.5833 -74.3500 237° Southwest 128 147 3,300 470 Climbing New York TRACON
Tue 04:15:37 AM 40.5500 -74.3833 217° Southwest 129 148 3,800 347 Climbing New York TRACON
Tue 04:16:37 AM 40.5333 -74.4167 237° Southwest 142 163 4,000 100 Climbing New York TRACON
Tue 04:17:37 AM 40.5000 -74.4667 229° Southwest 152 175 4,000  Level New York TRACON
Tue 04:18:37 AM 40.4833 -74.5167 246° West 152 175 4,000  Level New York TRACON
Tue 04:19:37 AM 40.4500 -74.5500 217° Southwest 153 176 4,000 30 Level New York TRACON
Tue 04:21:56 AM 40.4000 -74.6667 241° Southwest 156 180 4,100 30 Climbing Philadelphia TRACON
Tue 04:22:56 AM 40.3667 -74.7000 217° Southwest 156 180 4,100  Level Philadelphia TRACON
Tue 04:23:56 AM 40.3500 -74.7500 246° West 155 178 4,100  Level Philadelphia TRACON
Tue 04:24:56 AM 40.3167 -74.8000 229° Southwest 155 178 4,100  Level Philadelphia TRACON
Tue 04:25:56 AM 40.2833 -74.8333 217° Southwest 156 180 4,100  Level Philadelphia TRACON
Tue 04:26:56 AM 40.2667 -74.8833 246° West 156 180 4,100  Level Philadelphia TRACON
Tue 04:27:57 AM 40.2333 -74.9333 229° Southwest 156 180 4,100  Level Philadelphia TRACON
Tue 04:28:57 AM 40.2167 -74.9667 237° Southwest 155 178 4,100  Level Philadelphia TRACON
Tue 04:29:57 AM 40.1833 -75.0167 229° Southwest 157 181 4,100  Level Philadelphia TRACON
Tue 04:30:57 AM 40.1500 -75.0667 229° Southwest 159 183 4,100  Level Philadelphia TRACON
Tue 04:31:57 AM 40.1333 -75.1167 246° West 159 183 4,100  Level Philadelphia TRACON
Tue 04:32:57 AM 40.1000 -75.1500 217° Southwest 156 180 4,100  Level Philadelphia TRACON
Tue 04:33:57 AM 40.0667 -75.2000 229° Southwest 157 181 4,100  Level Philadelphia TRACON
Tue 04:34:57 AM 40.0500 -75.2500 246° West 155 178 4,100  Level Philadelphia TRACON
Tue 04:35:57 AM 40.0167 -75.2833 217° Southwest 156 180 4,100  Level Philadelphia TRACON
Tue 04:36:57 AM 40.0000 -75.3333 246° West 155 178 4,100  Level Philadelphia TRACON
Tue 04:37:58 AM 39.9667 -75.3833 229° Southwest 154 177 4,100  Level Philadelphia TRACON
Tue 04:39:04 AM 39.9333 -75.4167 217° Southwest 154 177 4,100  Level Philadelphia TRACON
Tue 04:40:10 AM 39.9167 -75.4667 247° West 155 178 4,100  Level Philadelphia TRACON
Tue 04:41:10 AM 39.8833 -75.5167 229° Southwest 156 180 4,100  Level Philadelphia TRACON
Tue 04:42:10 AM 39.8500 -75.5667 229° Southwest 154 177 4,100  Level Philadelphia TRACON
Tue 04:43:10 AM 39.8333 -75.6000 237° Southwest 156 180 4,100  Level Philadelphia TRACON
Tue 04:44:10 AM 39.8000 -75.6500 229° Southwest 157 181 4,100  Level Philadelphia TRACON
Tue 04:45:10 AM 39.7833 -75.7000 247° West 156 180 4,100  Level Philadelphia TRACON
Tue 04:46:16 AM 39.7500 -75.7500 229° Southwest 157 181 4,100  Level Philadelphia TRACON
Tue 04:47:16 AM 39.7167 -75.7833 218° Southwest 158 182 4,100  Level Philadelphia TRACON
Tue 04:48:10 AM 39.7000 -75.8333 247° West 158 182 4,100  Level Philadelphia TRACON
Tue 04:49:10 AM 39.6667 -75.8667 218° Southwest 157 181 4,100  Level Philadelphia TRACON
Tue 04:50:10 AM 39.6333 -75.9167 229° Southwest 156 180 4,100 -54 Level Philadelphia TRACON
Tue 04:51:02 AM 39.6167 -75.9500 237° Southwest 156 180 4,000 -54 Descending Potomac TRACON
Tue 04:52:02 AM 39.6000 -76.0000 247° West 153 176 4,000  Level Potomac TRACON
Tue 04:53:02 AM 39.5667 -76.0333 218° Southwest 155 178 4,000  Level Potomac TRACON
Tue 04:54:02 AM 39.5167 -76.0667 207° Southwest 158 182 4,000  Level Potomac TRACON
Tue 04:55:02 AM 39.4833 -76.0833 201° Southwest 157 181 4,000 49 Level Potomac TRACON
Tue 04:56:05 AM 39.4333 -76.1167 207° Southwest 155 178 4,100  Climbing Philadelphia TRACON
Tue 04:56:08 AM 39.4333 -76.1167 207° Southwest 155 178 4,000  Descending Potomac TRACON
Tue 04:56:59 AM 39.4000 -76.1333 201° Southwest 155 178 4,100 54 Climbing Philadelphia TRACON
Tue 04:57:59 AM 39.3667 -76.1667 218° Southwest 155 178 4,100  Level Philadelphia TRACON
Tue 04:58:59 AM 39.3333 -76.1833 201° Southwest 156 180 4,100 -93 Level Philadelphia TRACON
Tue 05:00:08 AM 39.2833 -76.2167 207° Southwest 155 178 3,900 -326 Descending Potomac TRACON
Tue 05:01:08 AM 39.2500 -76.2500 218° Southwest 167 192 3,400 -450 Descending Potomac TRACON
Tue 05:02:08 AM 39.2000 -76.2667 194° South 170 196 3,000 -250 Descending Potomac TRACON
Tue 05:03:08 AM 39.1667 -76.3000 218° Southwest 159 183 2,900 -350 Descending Potomac TRACON
Tue 05:04:08 AM 39.1333 -76.3333 218° Southwest 172 198 2,300 -450 Descending Potomac TRACON
Tue 05:05:08 AM 39.1000 -76.3667 218° Southwest 165 190 2,000 -150 Descending Potomac TRACON
Tue 05:06:08 AM 39.0667 -76.4167 229° Southwest 154 177 2,000  Level Potomac TRACON
Tue 05:07:08 AM 39.0500 -76.4667 247° West 149 171 2,000  Level Potomac TRACON
Tue 05:08:08 AM 39.0500 -76.5167 270° West 157 181 2,000  Level Potomac TRACON
Tue 05:09:08 AM 39.0833 -76.5667 311° West 159 183 2,000 -250 Level Potomac TRACON
Tue 05:10:08 AM 39.1167 -76.6000 322° Northwest 169 194 1,500 -650 Descending Potomac TRACON
Tue 05:11:08 AM 39.1500 -76.6333 322° Northwest 176 203 700 -800 Descending Potomac TRACON
Tue 05:13:00 AM 39.1667 -76.6667 270° West  Level FlightAware Approximate

Login

Don't have an account? Register now (free) for customized features, flight alerts, and more!